sensor_id;sensor_type;location;lat;lon;timestamp;pressure;altitude;pressure_sealevel;temperature;humidity
3294;BME280;1659;51.470;6.770;2023-01-09T00:00:46;99298.06;;;7.85;95.93
3294;BME280;1659;51.470;6.770;2023-01-09T00:03:13;99300.75;;;7.83;95.96
3294;BME280;1659;51.470;6.770;2023-01-09T00:05:39;99294.69;;;7.81;96.70
3294;BME280;1659;51.470;6.770;2023-01-09T00:08:07;99293.78;;;7.81;96.63
3294;BME280;1659;51.470;6.770;2023-01-09T00:10:34;99297.34;;;7.80;96.85
3294;BME280;1659;51.470;6.770;2023-01-09T00:13:01;99293.84;;;7.79;96.95
3294;BME280;1659;51.470;6.770;2023-01-09T00:15:27;99300.03;;;7.78;96.77
3294;BME280;1659;51.470;6.770;2023-01-09T00:17:54;99296.53;;;7.78;97.29
3294;BME280;1659;51.470;6.770;2023-01-09T00:20:20;99293.91;;;7.78;97.85
3294;BME280;1659;51.470;6.770;2023-01-09T00:22:47;99300.06;;;7.77;97.69
3294;BME280;1659;51.470;6.770;2023-01-09T00:25:15;99302.75;;;7.75;97.73
3294;BME280;1659;51.470;6.770;2023-01-09T00:27:41;99300.97;;;7.75;97.83
3294;BME280;1659;51.470;6.770;2023-01-09T00:30:09;99294.91;;;7.73;98.06
3294;BME280;1659;51.470;6.770;2023-01-09T00:32:36;99297.53;;;7.73;98.22
3294;BME280;1659;51.470;6.770;2023-01-09T00:35:02;99288.81;;;7.71;98.29
3294;BME280;1659;51.470;6.770;2023-01-09T00:37:29;99286.25;;;7.70;98.27
3294;BME280;1659;51.470;6.770;2023-01-09T00:39:56;99293.31;;;7.68;98.76
3294;BME280;1659;51.470;6.770;2023-01-09T00:42:25;99294.25;;;7.65;98.62
3294;BME280;1659;51.470;6.770;2023-01-09T00:44:56;99292.56;;;7.64;99.01
3294;BME280;1659;51.470;6.770;2023-01-09T00:47:26;99290.81;;;7.63;98.50
3294;BME280;1659;51.470;6.770;2023-01-09T00:49:56;99300.47;;;7.63;98.65
3294;BME280;1659;51.470;6.770;2023-01-09T00:52:24;99293.50;;;7.62;98.84
3294;BME280;1659;51.470;6.770;2023-01-09T00:54:50;99308.41;;;7.61;99.25
3294;BME280;1659;51.470;6.770;2023-01-09T00:57:17;99311.03;;;7.61;99.03
3294;BME280;1659;51.470;6.770;2023-01-09T00:59:45;99326.84;;;7.60;99.04
3294;BME280;1659;51.470;6.770;2023-01-09T01:02:11;99320.84;;;7.56;99.28
3294;BME280;1659;51.470;6.770;2023-01-09T01:04:38;99334.91;;;7.55;98.94
3294;BME280;1659;51.470;6.770;2023-01-09T01:07:22;99342.91;;;7.50;99.67
3294;BME280;1659;51.470;6.770;2023-01-09T01:10:05;99342.94;;;7.49;99.46
3294;BME280;1659;51.470;6.770;2023-01-09T01:12:32;99344.78;;;7.47;99.41
3294;BME280;1659;51.470;6.770;2023-01-09T01:15:00;99341.28;;;7.46;99.89
3294;BME280;1659;51.470;6.770;2023-01-09T01:17:26;99345.69;;;7.44;99.97
3294;BME280;1659;51.470;6.770;2023-01-09T01:19:53;99344.84;;;7.44;99.44
3294;BME280;1659;51.470;6.770;2023-01-09T01:22:20;99347.56;;;7.41;99.34
3294;BME280;1659;51.470;6.770;2023-01-09T01:24:46;99348.47;;;7.40;100.00
3294;BME280;1659;51.470;6.770;2023-01-09T01:27:13;99347.59;;;7.39;100.00
3294;BME280;1659;51.470;6.770;2023-01-09T01:29:40;99345.88;;;7.38;99.80
3294;BME280;1659;51.470;6.770;2023-01-09T01:32:08;99351.19;;;7.36;99.71
3294;BME280;1659;51.470;6.770;2023-01-09T01:34:35;99345.94;;;7.36;100.00
3294;BME280;1659;51.470;6.770;2023-01-09T01:37:03;99351.19;;;7.36;100.00
3294;BME280;1659;51.470;6.770;2023-01-09T01:39:30;99352.06;;;7.35;99.69
3294;BME280;1659;51.470;6.770;2023-01-09T01:41:57;99347.75;;;7.34;100.00
3294;BME280;1659;51.470;6.770;2023-01-09T01:44:59;99355.59;;;7.36;100.00
3294;BME280;1659;51.470;6.770;2023-01-09T01:47:35;99352.97;;;7.36;100.00
3294;BME280;1659;51.470;6.770;2023-01-09T01:50:07;99350.34;;;7.36;100.00
3294;BME280;1659;51.470;6.770;2023-01-09T01:52:36;99356.47;;;7.35;100.00
3294;BME280;1659;51.470;6.770;2023-01-09T01:55:04;99364.41;;;7.33;100.00
3294;BME280;1659;51.470;6.770;2023-01-09T01:57:33;99364.47;;;7.30;100.00
3294;BME280;1659;51.470;6.770;2023-01-09T02:00:02;99369.81;;;7.29;100.00
3294;BME280;1659;51.470;6.770;2023-01-09T02:02:31;99365.44;;;7.28;99.88
3294;BME280;1659;51.470;6.770;2023-01-09T02:04:59;99376.00;;;7.26;100.00
3294;BME280;1659;51.470;6.770;2023-01-09T02:07:27;99377.81;;;7.24;100.00
3294;BME280;1659;51.470;6.770;2023-01-09T02:09:54;99379.69;;;7.19;100.00
3294;BME280;1659;51.470;6.770;2023-01-09T02:12:23;99387.66;;;7.16;99.72
3294;BME280;1659;51.470;6.770;2023-01-09T02:14:52;99379.00;;;7.12;99.93
3294;BME280;1659;51.470;6.770;2023-01-09T02:17:34;99385.28;;;7.07;99.74
3294;BME280;1659;51.470;6.770;2023-01-09T02:20:38;99395.91;;;7.02;100.00
3294;BME280;1659;51.470;6.770;2023-01-09T02:23:37;99391.72;;;6.95;99.81
3294;BME280;1659;51.470;6.770;2023-01-09T02:26:34;99392.66;;;6.92;99.49
3294;BME280;1659;51.470;6.770;2023-01-09T02:29:29;99388.38;;;6.88;99.42
3294;BME280;1659;51.470;6.770;2023-01-09T02:32:09;99387.69;;;6.82;99.29
3294;BME280;1659;51.470;6.770;2023-01-09T02:34:46;99377.38;;;6.74;98.96
3294;BME280;1659;51.470;6.770;2023-01-09T02:37:22;99391.56;;;6.67;99.29
3294;BME280;1659;51.470;6.770;2023-01-09T02:40:02;99388.16;;;6.63;99.12
3294;BME280;1659;51.470;6.770;2023-01-09T02:42:30;99384.75;;;6.59;99.37
3294;BME280;1659;51.470;6.770;2023-01-09T02:44:58;99390.97;;;6.55;99.91
3294;BME280;1659;51.470;6.770;2023-01-09T02:47:39;99392.84;;;6.50;99.38
3294;BME280;1659;51.470;6.770;2023-01-09T02:50:09;99404.31;;;6.45;99.39
3294;BME280;1659;51.470;6.770;2023-01-09T02:52:47;99401.69;;;6.45;99.96
3294;BME280;1659;51.470;6.770;2023-01-09T02:55:25;99410.38;;;6.48;100.00
3294;BME280;1659;51.470;6.770;2023-01-09T02:58:04;99410.22;;;6.54;100.00
3294;BME280;1659;51.470;6.770;2023-01-09T03:00:38;99403.97;;;6.60;100.00
3294;BME280;1659;51.470;6.770;2023-01-09T03:03:17;99400.41;;;6.63;100.00
3294;BME280;1659;51.470;6.770;2023-01-09T03:05:51;99398.56;;;6.66;100.00
3294;BME280;1659;51.470;6.770;2023-01-09T03:08:23;99397.66;;;6.67;100.00
3294;BME280;1659;51.470;6.770;2023-01-09T03:10:58;99401.25;;;6.65;99.46
3294;BME280;1659;51.470;6.770;2023-01-09T03:13:29;99400.41;;;6.63;99.76
3294;BME280;1659;51.470;6.770;2023-01-09T03:15:59;99404.78;;;6.62;100.00
3294;BME280;1659;51.470;6.770;2023-01-09T03:18:30;99405.72;;;6.59;99.90
3294;BME280;1659;51.470;6.770;2023-01-09T03:20:57;99411.13;;;6.53;99.03
3294;BME280;1659;51.470;6.770;2023-01-09T03:23:25;99412.91;;;6.51;99.79
3294;BME280;1659;51.470;6.770;2023-01-09T03:25:51;99415.69;;;6.47;99.38
3294;BME280;1659;51.470;6.770;2023-01-09T03:28:25;99419.31;;;6.39;99.59
3294;BME280;1659;51.470;6.770;2023-01-09T03:30:51;99422.97;;;6.32;99.45
3294;BME280;1659;51.470;6.770;2023-01-09T03:33:18;99421.38;;;6.27;98.99
3294;BME280;1659;51.470;6.770;2023-01-09T03:35:46;99424.16;;;6.20;99.42
3294;BME280;1659;51.470;6.770;2023-01-09T03:38:12;99428.59;;;6.17;99.89
3294;BME280;1659;51.470;6.770;2023-01-09T03:40:39;99426.91;;;6.13;99.21
3294;BME280;1659;51.470;6.770;2023-01-09T03:43:07;99433.13;;;6.10;99.31
3294;BME280;1659;51.470;6.770;2023-01-09T03:45:33;99435.75;;;6.09;99.31
3294;BME280;1659;51.470;6.770;2023-01-09T03:48:00;99438.38;;;6.09;99.59
3294;BME280;1659;51.470;6.770;2023-01-09T03:50:26;99437.59;;;6.05;99.47
3294;BME280;1659;51.470;6.770;2023-01-09T03:52:54;99436.78;;;6.03;100.00
3294;BME280;1659;51.470;6.770;2023-01-09T03:55:21;99441.16;;;6.01;99.45
3294;BME280;1659;51.470;6.770;2023-01-09T03:57:48;99441.25;;;5.98;99.67
3294;BME280;1659;51.470;6.770;2023-01-09T04:00:17;99444.75;;;5.95;99.66
3294;BME280;1659;51.470;6.770;2023-01-09T04:02:44;99445.69;;;5.93;99.88
3294;BME280;1659;51.470;6.770;2023-01-09T04:05:10;99441.31;;;5.92;99.91
3294;BME280;1659;51.470;6.770;2023-01-09T04:07:37;99448.41;;;5.88;99.03
3294;BME280;1659;51.470;6.770;2023-01-09T04:10:06;99453.72;;;5.83;99.78
3294;BME280;1659;51.470;6.770;2023-01-09T04:12:32;99456.44;;;5.80;99.88
3294;BME280;1659;51.470;6.770;2023-01-09T04:14:59;99454.66;;;5.81;99.45
3294;BME280;1659;51.470;6.770;2023-01-09T04:17:25;99458.13;;;5.81;99.60
3294;BME280;1659;51.470;6.770;2023-01-09T04:19:52;99447.72;;;5.78;99.36
3294;BME280;1659;51.470;6.770;2023-01-09T04:22:18;99448.66;;;5.76;99.76
3294;BME280;1659;51.470;6.770;2023-01-09T04:24:45;99445.25;;;5.71;99.42
3294;BME280;1659;51.470;6.770;2023-01-09T04:27:13;99453.16;;;5.69;99.95
3294;BME280;1659;51.470;6.770;2023-01-09T04:29:39;99448.75;;;5.70;99.76
3294;BME280;1659;51.470;6.770;2023-01-09T04:32:06;99456.69;;;5.68;100.00
3294;BME280;1659;51.470;6.770;2023-01-09T04:34:32;99457.53;;;5.68;99.98
3294;BME280;1659;51.470;6.770;2023-01-09T04:36:59;99459.31;;;5.68;100.00
3294;BME280;1659;51.470;6.770;2023-01-09T04:39:25;99458.50;;;5.64;99.98
3294;BME280;1659;51.470;6.770;2023-01-09T04:41:52;99465.53;;;5.61;100.00
3294;BME280;1659;51.470;6.770;2023-01-09T04:44:21;99460.34;;;5.59;100.00
3294;BME280;1659;51.470;6.770;2023-01-09T04:46:50;99463.81;;;5.60;100.00
3294;BME280;1659;51.470;6.770;2023-01-09T04:49:17;99470.81;;;5.59;100.00
3294;BME280;1659;51.470;6.770;2023-01-09T04:51:44;99466.44;;;5.60;99.87
3294;BME280;1659;51.470;6.770;2023-01-09T04:54:10;99470.75;;;5.61;99.81
3294;BME280;1659;51.470;6.770;2023-01-09T04:56:37;99467.31;;;5.59;99.91
3294;BME280;1659;51.470;6.770;2023-01-09T04:59:04;99477.78;;;5.59;100.00
3294;BME280;1659;51.470;6.770;2023-01-09T05:01:32;99476.91;;;5.61;100.00
3294;BME280;1659;51.470;6.770;2023-01-09T05:03:59;99477.69;;;5.65;99.93
3294;BME280;1659;51.470;6.770;2023-01-09T05:06:26;99481.16;;;5.67;99.93
3294;BME280;1659;51.470;6.770;2023-01-09T05:08:52;99478.47;;;5.70;100.00
3294;BME280;1659;51.470;6.770;2023-01-09T05:11:20;99485.38;;;5.74;99.98
3294;BME280;1659;51.470;6.770;2023-01-09T05:13:47;99490.41;;;5.83;99.92
3294;BME280;1659;51.470;6.770;2023-01-09T05:16:13;99485.06;;;5.90;99.88
3294;BME280;1659;51.470;6.770;2023-01-09T05:18:41;99491.03;;;5.99;99.68
3294;BME280;1659;51.470;6.770;2023-01-09T05:21:10;99494.38;;;6.06;99.16
3294;BME280;1659;51.470;6.770;2023-01-09T05:23:37;99487.22;;;6.14;98.76
3294;BME280;1659;51.470;6.770;2023-01-09T05:26:04;99495.81;;;6.21;98.66
3294;BME280;1659;51.470;6.770;2023-01-09T05:28:31;99487.91;;;6.24;97.89
3294;BME280;1659;51.470;6.770;2023-01-09T05:30:58;99486.84;;;6.31;97.73
3294;BME280;1659;51.470;6.770;2023-01-09T05:33:24;99492.84;;;6.38;97.11
3294;BME280;1659;51.470;6.770;2023-01-09T05:35:52;99494.47;;;6.43;96.59
3294;BME280;1659;51.470;6.770;2023-01-09T05:38:18;99503.13;;;6.47;96.87
3294;BME280;1659;51.470;6.770;2023-01-09T05:40:45;99502.19;;;6.50;96.35
3294;BME280;1659;51.470;6.770;2023-01-09T05:43:11;99504.75;;;6.53;96.10
3294;BME280;1659;51.470;6.770;2023-01-09T05:45:38;99501.19;;;6.55;95.34
3294;BME280;1659;51.470;6.770;2023-01-09T05:48:05;99495.88;;;6.57;95.28
3294;BME280;1659;51.470;6.770;2023-01-09T05:50:31;99492.34;;;6.59;94.33
3294;BME280;1659;51.470;6.770;2023-01-09T05:52:59;99499.28;;;6.62;94.16
3294;BME280;1659;51.470;6.770;2023-01-09T05:55:26;99488.75;;;6.64;94.10
3294;BME280;1659;51.470;6.770;2023-01-09T05:57:52;99495.72;;;6.65;94.70
3294;BME280;1659;51.470;6.770;2023-01-09T06:00:19;99506.19;;;6.66;93.92
3294;BME280;1659;51.470;6.770;2023-01-09T06:02:46;99502.69;;;6.66;93.70
3294;BME280;1659;51.470;6.770;2023-01-09T06:05:12;99502.78;;;6.63;93.80
3294;BME280;1659;51.470;6.770;2023-01-09T06:07:39;99503.69;;;6.60;93.76
3294;BME280;1659;51.470;6.770;2023-01-09T06:10:10;99499.38;;;6.59;93.40
3294;BME280;1659;51.470;6.770;2023-01-09T06:12:37;99506.34;;;6.58;93.61
3294;BME280;1659;51.470;6.770;2023-01-09T06:15:04;99508.09;;;6.59;93.77
3294;BME280;1659;51.470;6.770;2023-01-09T06:17:31;99506.28;;;6.61;93.89
3294;BME280;1659;51.470;6.770;2023-01-09T06:19:58;99501.03;;;6.61;93.35
3294;BME280;1659;51.470;6.770;2023-01-09T06:22:24;99497.53;;;6.63;93.98
3294;BME280;1659;51.470;6.770;2023-01-09T06:24:51;99495.72;;;6.65;93.71
3294;BME280;1659;51.470;6.770;2023-01-09T06:27:19;99502.63;;;6.69;93.47
3294;BME280;1659;51.470;6.770;2023-01-09T06:29:45;99498.19;;;6.71;93.58
3294;BME280;1659;51.470;6.770;2023-01-09T06:32:12;99497.31;;;6.72;93.70
3294;BME280;1659;51.470;6.770;2023-01-09T06:34:38;99497.31;;;6.72;93.53
3294;BME280;1659;51.470;6.770;2023-01-09T06:37:05;99506.94;;;6.73;93.67
3294;BME280;1659;51.470;6.770;2023-01-09T06:39:31;99497.28;;;6.73;93.21
3294;BME280;1659;51.470;6.770;2023-01-09T06:41:58;99489.38;;;6.75;93.37
3294;BME280;1659;51.470;6.770;2023-01-09T06:44:25;99506.00;;;6.74;93.65
3294;BME280;1659;51.470;6.770;2023-01-09T06:46:52;99494.59;;;6.76;92.98
3294;BME280;1659;51.470;6.770;2023-01-09T06:49:18;99501.53;;;6.77;92.82
3294;BME280;1659;51.470;6.770;2023-01-09T06:51:48;99490.97;;;6.80;92.98
3294;BME280;1659;51.470;6.770;2023-01-09T06:54:15;99489.25;;;6.79;92.75
3294;BME280;1659;51.470;6.770;2023-01-09T06:56:41;99489.19;;;6.83;92.31
3294;BME280;1659;51.470;6.770;2023-01-09T06:59:08;99493.50;;;6.85;92.79
3294;BME280;1659;51.470;6.770;2023-01-09T07:01:36;99490.84;;;6.87;92.18
3294;BME280;1659;51.470;6.770;2023-01-09T07:04:04;99488.13;;;6.90;92.55
3294;BME280;1659;51.470;6.770;2023-01-09T07:06:31;99497.63;;;6.95;91.23
3294;BME280;1659;51.470;6.770;2023-01-09T07:08:57;99496.63;;;7.01;91.69
3294;BME280;1659;51.470;6.770;2023-01-09T07:11:24;99494.81;;;7.03;91.61
3294;BME280;1659;51.470;6.770;2023-01-09T07:13:50;99496.47;;;7.06;91.50
3294;BME280;1659;51.470;6.770;2023-01-09T07:16:17;99493.84;;;7.06;90.97
3294;BME280;1659;51.470;6.770;2023-01-09T07:18:45;99493.78;;;7.09;90.93
3294;BME280;1659;51.470;6.770;2023-01-09T07:21:11;99491.94;;;7.12;91.08
3294;BME280;1659;51.470;6.770;2023-01-09T07:23:38;99497.13;;;7.15;90.61
3294;BME280;1659;51.470;6.770;2023-01-09T07:26:04;99489.25;;;7.15;90.22
3294;BME280;1659;51.470;6.770;2023-01-09T07:28:31;99497.16;;;7.14;89.98
3294;BME280;1659;51.470;6.770;2023-01-09T07:30:57;99495.44;;;7.13;90.36
3294;BME280;1659;51.470;6.770;2023-01-09T07:33:26;99510.31;;;7.14;89.87
3294;BME280;1659;51.470;6.770;2023-01-09T07:35:54;99504.16;;;7.15;90.19
3294;BME280;1659;51.470;6.770;2023-01-09T07:38:21;99498.03;;;7.14;90.07
3294;BME280;1659;51.470;6.770;2023-01-09T07:40:47;99499.75;;;7.15;89.78
3294;BME280;1659;51.470;6.770;2023-01-09T07:43:14;99500.69;;;7.13;90.18
3294;BME280;1659;51.470;6.770;2023-01-09T07:45:40;99498.06;;;7.13;89.68
3294;BME280;1659;51.470;6.770;2023-01-09T07:48:07;99488.50;;;7.10;90.01
3294;BME280;1659;51.470;6.770;2023-01-09T07:50:34;99502.59;;;7.08;90.38
3294;BME280;1659;51.470;6.770;2023-01-09T07:53:01;99502.69;;;7.03;90.75
3294;BME280;1659;51.470;6.770;2023-01-09T07:55:28;99500.19;;;6.97;90.44
3294;BME280;1659;51.470;6.770;2023-01-09T07:57:54;99506.47;;;6.91;91.52
3294;BME280;1659;51.470;6.770;2023-01-09T08:00:21;99517.97;;;6.87;91.64
3294;BME280;1659;51.470;6.770;2023-01-09T08:02:50;99519.72;;;6.87;91.97
3294;BME280;1659;51.470;6.770;2023-01-09T08:05:18;99514.50;;;6.85;92.00
3294;BME280;1659;51.470;6.770;2023-01-09T08:07:44;99531.13;;;6.86;91.75
3294;BME280;1659;51.470;6.770;2023-01-09T08:10:12;99523.28;;;6.84;92.71
3294;BME280;1659;51.470;6.770;2023-01-09T08:12:41;99534.59;;;6.86;93.02
3294;BME280;1659;51.470;6.770;2023-01-09T08:15:08;99529.38;;;6.85;92.92
3294;BME280;1659;51.470;6.770;2023-01-09T08:17:35;99535.56;;;6.84;92.75
3294;BME280;1659;51.470;6.770;2023-01-09T08:20:02;99533.78;;;6.84;92.80
3294;BME280;1659;51.470;6.770;2023-01-09T08:22:28;99525.88;;;6.86;92.96
3294;BME280;1659;51.470;6.770;2023-01-09T08:24:55;99530.25;;;6.85;93.49
3294;BME280;1659;51.470;6.770;2023-01-09T08:27:23;99534.63;;;6.85;93.84
3294;BME280;1659;51.470;6.770;2023-01-09T08:29:49;99544.25;;;6.86;93.45
3294;BME280;1659;51.470;6.770;2023-01-09T08:32:16;99542.47;;;6.86;93.59
3294;BME280;1659;51.470;6.770;2023-01-09T08:34:42;99544.25;;;6.86;93.39
3294;BME280;1659;51.470;6.770;2023-01-09T08:37:09;99538.16;;;6.84;93.61
3294;BME280;1659;51.470;6.770;2023-01-09T08:39:35;99533.81;;;6.83;94.30
3294;BME280;1659;51.470;6.770;2023-01-09T08:42:02;99553.94;;;6.84;94.42
3294;BME280;1659;51.470;6.770;2023-01-09T08:44:44;99546.88;;;6.86;94.33
3294;BME280;1659;51.470;6.770;2023-01-09T08:47:28;99568.72;;;6.86;94.34
3294;BME280;1659;51.470;6.770;2023-01-09T08:49:57;99563.47;;;6.86;94.50
3294;BME280;1659;51.470;6.770;2023-01-09T08:52:24;99578.41;;;6.84;93.90
3294;BME280;1659;51.470;6.770;2023-01-09T08:54:50;99568.84;;;6.82;94.16
3294;BME280;1659;51.470;6.770;2023-01-09T08:57:17;99573.31;;;6.78;94.27
3294;BME280;1659;51.470;6.770;2023-01-09T08:59:45;99573.34;;;6.76;94.97
3294;BME280;1659;51.470;6.770;2023-01-09T09:02:11;99575.13;;;6.74;95.34
3294;BME280;1659;51.470;6.770;2023-01-09T09:04:38;99577.75;;;6.74;95.15
3294;BME280;1659;51.470;6.770;2023-01-09T09:07:05;99576.00;;;6.75;95.83
3294;BME280;1659;51.470;6.770;2023-01-09T09:09:31;99579.47;;;6.75;95.85
3294;BME280;1659;51.470;6.770;2023-01-09T09:11:58;99574.16;;;6.78;95.66
3294;BME280;1659;51.470;6.770;2023-01-09T09:14:24;99576.75;;;6.80;95.37
3294;BME280;1659;51.470;6.770;2023-01-09T09:17:09;99574.97;;;6.82;95.26
3294;BME280;1659;51.470;6.770;2023-01-09T09:19:36;99573.16;;;6.84;95.53
3294;BME280;1659;51.470;6.770;2023-01-09T09:22:03;99571.34;;;6.86;95.67
3294;BME280;1659;51.470;6.770;2023-01-09T09:24:30;99572.13;;;6.91;96.18
3294;BME280;1659;51.470;6.770;2023-01-09T09:26:56;99577.25;;;6.97;95.46
3294;BME280;1659;51.470;6.770;2023-01-09T09:29:23;99586.75;;;7.03;95.93
3294;BME280;1659;51.470;6.770;2023-01-09T09:31:50;99587.53;;;7.07;95.41
3294;BME280;1659;51.470;6.770;2023-01-09T09:34:17;99593.50;;;7.13;95.70
3294;BME280;1659;51.470;6.770;2023-01-09T09:36:44;99590.69;;;7.21;94.86
3294;BME280;1659;51.470;6.770;2023-01-09T09:39:10;99601.94;;;7.26;95.38
3294;BME280;1659;51.470;6.770;2023-01-09T09:45:01;99619.28;;;7.33;94.47
3294;BME280;1659;51.470;6.770;2023-01-09T09:47:38;99614.81;;;7.37;94.46
3294;BME280;1659;51.470;6.770;2023-01-09T09:50:18;99623.50;;;7.41;94.20
3294;BME280;1659;51.470;6.770;2023-01-09T09:52:51;99626.91;;;7.44;93.70
3294;BME280;1659;51.470;6.770;2023-01-09T09:55:25;99628.66;;;7.45;94.20
3294;BME280;1659;51.470;6.770;2023-01-09T09:57:53;99632.06;;;7.49;93.81
3294;BME280;1659;51.470;6.770;2023-01-09T10:00:22;99636.31;;;7.54;93.68
3294;BME280;1659;51.470;6.770;2023-01-09T10:02:52;99632.72;;;7.59;93.83
3294;BME280;1659;51.470;6.770;2023-01-09T10:05:26;99643.13;;;7.62;93.31
3294;BME280;1659;51.470;6.770;2023-01-09T10:07:55;99639.56;;;7.66;92.82
3294;BME280;1659;51.470;6.770;2023-01-09T10:10:26;99641.22;;;7.68;92.47
3294;BME280;1659;51.470;6.770;2023-01-09T10:12:56;99663.03;;;7.72;91.92
3294;BME280;1659;51.470;6.770;2023-01-09T10:15:30;99656.88;;;7.74;91.79
3294;BME280;1659;51.470;6.770;2023-01-09T10:18:09;99662.91;;;7.78;91.62
3294;BME280;1659;51.470;6.770;2023-01-09T10:20:47;99650.56;;;7.80;91.40
3294;BME280;1659;51.470;6.770;2023-01-09T10:26:11;99660.09;;;7.84;91.55
3294;BME280;1659;51.470;6.770;2023-01-09T10:28:53;99654.84;;;7.84;91.48
3294;BME280;1659;51.470;6.770;2023-01-09T10:31:27;99654.78;;;7.87;90.65
3294;BME280;1659;51.470;6.770;2023-01-09T10:34:04;99659.13;;;7.90;90.51
3294;BME280;1659;51.470;6.770;2023-01-09T10:37:03;99648.50;;;7.93;90.01
3294;BME280;1659;51.470;6.770;2023-01-09T10:39:36;99657.22;;;7.95;90.08
3294;BME280;1659;51.470;6.770;2023-01-09T10:42:10;99655.44;;;7.96;89.91
3294;BME280;1659;51.470;6.770;2023-01-09T10:44:45;99664.19;;;7.96;89.96
3294;BME280;1659;51.470;6.770;2023-01-09T10:47:15;99665.94;;;7.97;89.67
3294;BME280;1659;51.470;6.770;2023-01-09T10:49:44;99666.72;;;8.01;89.56
3294;BME280;1659;51.470;6.770;2023-01-09T10:52:15;99665.75;;;8.03;89.64
3294;BME280;1659;51.470;6.770;2023-01-09T10:54:50;99677.97;;;8.07;89.84
3294;BME280;1659;51.470;6.770;2023-01-09T10:57:26;99674.38;;;8.10;89.28
3294;BME280;1659;51.470;6.770;2023-01-09T10:59:55;99681.34;;;8.12;88.90
3294;BME280;1659;51.470;6.770;2023-01-09T11:02:26;99679.50;;;8.15;89.13
3294;BME280;1659;51.470;6.770;2023-01-09T11:04:54;99677.75;;;8.15;88.56
3294;BME280;1659;51.470;6.770;2023-01-09T11:07:24;99681.19;;;8.17;88.34
3294;BME280;1659;51.470;6.770;2023-01-09T11:09:57;99689.00;;;8.20;88.56
3294;BME280;1659;51.470;6.770;2023-01-09T11:12:25;99677.53;;;8.23;88.62
3294;BME280;1659;51.470;6.770;2023-01-09T11:14:52;99683.63;;;8.25;88.81
3294;BME280;1659;51.470;6.770;2023-01-09T11:17:20;99682.75;;;8.24;88.17
3294;BME280;1659;51.470;6.770;2023-01-09T11:20:00;99683.63;;;8.25;87.87
3294;BME280;1659;51.470;6.770;2023-01-09T11:22:28;99691.47;;;8.26;88.20
3294;BME280;1659;51.470;6.770;2023-01-09T11:25:11;99684.50;;;8.25;88.14
3294;BME280;1659;51.470;6.770;2023-01-09T11:27:37;99688.00;;;8.24;88.60
3294;BME280;1659;51.470;6.770;2023-01-09T11:30:12;99701.22;;;8.23;88.52
3294;BME280;1659;51.470;6.770;2023-01-09T11:32:40;99696.94;;;8.19;88.34
3294;BME280;1659;51.470;6.770;2023-01-09T11:35:16;99695.38;;;8.11;88.04
3294;BME280;1659;51.470;6.770;2023-01-09T11:37:45;99703.38;;;8.07;88.28
3294;BME280;1659;51.470;6.770;2023-01-09T11:40:17;99697.38;;;8.02;87.95
3294;BME280;1659;51.470;6.770;2023-01-09T11:43:03;99714.06;;;8.01;88.48
3294;BME280;1659;51.470;6.770;2023-01-09T11:45:35;99708.00;;;7.99;88.72
3294;BME280;1659;51.470;6.770;2023-01-09T11:48:16;99710.69;;;7.96;88.54
3294;BME280;1659;51.470;6.770;2023-01-09T11:50:52;99717.63;;;7.98;89.46
3294;BME280;1659;51.470;6.770;2023-01-09T11:53:22;99722.81;;;8.01;89.12
3294;BME280;1659;51.470;6.770;2023-01-09T11:55:57;99720.19;;;8.01;89.63
3294;BME280;1659;51.470;6.770;2023-01-09T11:58:27;99723.72;;;8.00;89.48
3294;BME280;1659;51.470;6.770;2023-01-09T12:01:04;99734.22;;;8.00;89.63
3294;BME280;1659;51.470;6.770;2023-01-09T12:03:50;99739.50;;;8.00;89.40
3294;BME280;1659;51.470;6.770;2023-01-09T12:06:28;99747.38;;;8.00;89.53
3294;BME280;1659;51.470;6.770;2023-01-09T12:09:01;99745.69;;;7.99;89.94
3294;BME280;1659;51.470;6.770;2023-01-09T12:11:37;99746.69;;;7.93;89.69
3294;BME280;1659;51.470;6.770;2023-01-09T12:14:25;99742.53;;;7.85;89.42
3294;BME280;1659;51.470;6.770;2023-01-09T12:17:09;99751.47;;;7.78;89.93
3294;BME280;1659;51.470;6.770;2023-01-09T12:19:50;99755.97;;;7.72;90.16
3294;BME280;1659;51.470;6.770;2023-01-09T12:22:27;99762.25;;;7.65;90.60
3294;BME280;1659;51.470;6.770;2023-01-09T12:25:16;99763.31;;;7.56;90.23
3294;BME280;1659;51.470;6.770;2023-01-09T12:27:55;99763.47;;;7.50;90.87
3294;BME280;1659;51.470;6.770;2023-01-09T12:30:49;99771.44;;;7.46;91.22
3294;BME280;1659;51.470;6.770;2023-01-09T12:33:28;99768.03;;;7.42;91.49
3294;BME280;1659;51.470;6.770;2023-01-09T12:36:08;99777.66;;;7.43;91.90
3294;BME280;1659;51.470;6.770;2023-01-09T12:38:40;99769.72;;;7.45;92.31
3294;BME280;1659;51.470;6.770;2023-01-09T12:41:18;99774.88;;;7.49;92.12
3294;BME280;1659;51.470;6.770;2023-01-09T12:43:56;99780.81;;;7.57;92.70
3294;BME280;1659;51.470;6.770;2023-01-09T12:46:31;99772.75;;;7.65;92.47
3294;BME280;1659;51.470;6.770;2023-01-09T12:49:14;99770.59;;;7.83;92.41
3294;BME280;1659;51.470;6.770;2023-01-09T12:51:48;99777.28;;;7.98;92.00
3294;BME280;1659;51.470;6.770;2023-01-09T12:54:22;99773.63;;;8.03;92.22
3294;BME280;1659;51.470;6.770;2023-01-09T12:56:56;99776.19;;;8.06;91.78
3294;BME280;1659;51.470;6.770;2023-01-09T12:59:28;99776.22;;;8.05;92.03
3294;BME280;1659;51.470;6.770;2023-01-09T13:02:04;99772.88;;;7.98;91.66
3294;BME280;1659;51.470;6.770;2023-01-09T13:04:35;99780.91;;;7.93;91.64
3294;BME280;1659;51.470;6.770;2023-01-09T13:07:08;99771.44;;;7.85;92.10
3294;BME280;1659;51.470;6.770;2023-01-09T13:09:42;99793.47;;;7.79;91.73
3294;BME280;1659;51.470;6.770;2023-01-09T13:12:13;99801.53;;;7.73;91.91
3294;BME280;1659;51.470;6.770;2023-01-09T13:14:48;99797.25;;;7.69;91.88
3294;BME280;1659;51.470;6.770;2023-01-09T13:17:20;99797.34;;;7.64;91.91
3294;BME280;1659;51.470;6.770;2023-01-09T13:19:51;99810.53;;;7.61;91.82
3294;BME280;1659;51.470;6.770;2023-01-09T13:22:19;99807.09;;;7.59;91.75
3294;BME280;1659;51.470;6.770;2023-01-09T13:24:57;99812.38;;;7.57;92.02
3294;BME280;1659;51.470;6.770;2023-01-09T13:27:30;99818.50;;;7.58;91.96
3294;BME280;1659;51.470;6.770;2023-01-09T13:30:05;99829.91;;;7.59;92.24
3294;BME280;1659;51.470;6.770;2023-01-09T13:35:50;99831.63;;;7.58;92.06
3294;BME280;1659;51.470;6.770;2023-01-09T13:38:19;99841.25;;;7.59;92.41
3294;BME280;1659;51.470;6.770;2023-01-09T13:41:00;99845.56;;;7.62;92.63
3294;BME280;1659;51.470;6.770;2023-01-09T13:43:56;99850.78;;;7.65;92.12
3294;BME280;1659;51.470;6.770;2023-01-09T13:46:32;99849.91;;;7.66;92.17
3294;BME280;1659;51.470;6.770;2023-01-09T13:49:03;99848.06;;;7.69;92.14
3294;BME280;1659;51.470;6.770;2023-01-09T13:51:59;99856.78;;;7.71;92.13
3294;BME280;1659;51.470;6.770;2023-01-09T13:55:03;99857.59;;;7.73;91.96
3294;BME280;1659;51.470;6.770;2023-01-09T13:57:32;99857.59;;;7.73;92.53
3294;BME280;1659;51.470;6.770;2023-01-09T14:03:17;99869.94;;;7.71;92.35